createdAt,value
2023-01-11T00:00:18.917Z,-17.27
2023-01-11T00:03:23.208Z,-16.65
2023-01-11T00:06:27.552Z,-16.29
2023-01-11T00:09:32.022Z,-15.63
2023-01-11T00:12:36.482Z,-14.67
2023-01-11T00:15:41.308Z,-14.48
2023-01-11T00:18:45.652Z,-13.85
2023-01-11T00:21:50.931Z,-13.98
2023-01-11T00:24:55.441Z,-13.96
2023-01-11T00:28:00.269Z,-14.08
2023-01-11T00:31:04.686Z,-13.25
2023-01-11T00:34:08.988Z,-13.82
2023-01-11T00:37:13.657Z,-13.91
2023-01-11T00:40:18.452Z,-13.30
2023-01-11T00:43:41.462Z,-12.92
2023-01-11T00:47:04.591Z,-12.52
2023-01-11T00:50:09.160Z,-12.88
2023-01-11T00:53:15.238Z,-12.86
2023-01-11T00:56:19.796Z,-12.71
2023-01-11T00:59:24.160Z,-12.56
2023-01-11T01:02:28.013Z,-12.11
2023-01-11T01:05:32.975Z,-11.24
2023-01-11T01:08:45.375Z,-11.55
2023-01-11T01:11:50.639Z,-11.71
2023-01-11T01:15:00.582Z,-11.00
2023-01-11T01:18:06.973Z,-10.37
2023-01-11T01:21:11.413Z,-9.60
2023-01-11T01:24:16.094Z,-9.03
2023-01-11T01:27:20.877Z,-8.92
2023-01-11T01:30:25.113Z,-8.98
2023-01-11T01:33:29.449Z,-8.92
2023-01-11T01:36:34.485Z,-9.07
2023-01-11T01:39:39.344Z,-9.10
2023-01-11T01:42:43.544Z,-8.87
2023-01-11T01:45:53.634Z,-8.54
2023-01-11T01:49:19.490Z,-8.73
2023-01-11T01:52:29.870Z,-8.77
2023-01-11T01:55:39.505Z,-8.78
2023-01-11T01:58:55.983Z,-8.01
2023-01-11T02:02:01.453Z,-7.95
2023-01-11T02:05:07.188Z,-7.98
2023-01-11T02:08:20.961Z,-7.66
2023-01-11T02:11:35.875Z,-7.49
2023-01-11T02:14:42.867Z,-7.34
2023-01-11T02:18:11.531Z,-7.23
2023-01-11T02:21:49.886Z,-7.51
2023-01-11T02:25:22.417Z,-7.35
2023-01-11T02:28:39.672Z,-7.49
2023-01-11T02:32:12.555Z,-7.87
2023-01-11T02:35:29.037Z,-8.35
2023-01-11T02:38:59.305Z,-8.06
2023-01-11T02:42:33.454Z,-7.98
2023-01-11T02:46:01.588Z,-7.92
2023-01-11T02:49:11.400Z,-7.96
2023-01-11T02:52:21.460Z,-7.80
2023-01-11T02:55:30.206Z,-7.81
2023-01-11T02:58:39.177Z,-7.56
2023-01-11T03:01:56.268Z,-7.75
2023-01-11T03:05:00.660Z,-7.87
2023-01-11T03:08:35.225Z,-7.65
2023-01-11T03:11:58.021Z,-7.65
2023-01-11T03:15:23.527Z,-7.48
2023-01-11T03:18:48.772Z,-7.41
2023-01-11T03:22:13.868Z,-8.06
2023-01-11T03:25:32.235Z,-8.37
2023-01-11T03:28:57.654Z,-7.63
2023-01-11T03:32:35.620Z,-7.79
2023-01-11T03:35:58.285Z,-7.53
2023-01-11T03:39:15.474Z,-7.75
2023-01-11T03:42:24.955Z,-7.88
2023-01-11T03:45:32.307Z,-7.76
2023-01-11T03:48:49.043Z,-7.69
2023-01-11T03:51:55.974Z,-7.46
2023-01-11T03:55:03.845Z,-7.50
2023-01-11T03:58:09.770Z,-7.43
2023-01-11T04:01:15.096Z,-7.28
2023-01-11T04:04:19.680Z,-7.46
2023-01-11T04:07:23.893Z,-7.27
2023-01-11T04:10:28.445Z,-7.25
2023-01-11T04:13:34.872Z,-7.49
2023-01-11T04:16:39.481Z,-7.44
2023-01-11T04:19:43.912Z,-7.33
2023-01-11T04:22:48.455Z,-7.42
2023-01-11T04:25:54.195Z,-7.03
2023-01-11T04:28:58.851Z,-7.01
2023-01-11T04:32:04.703Z,-6.79
2023-01-11T04:35:09.462Z,-6.76
2023-01-11T04:38:13.834Z,-6.94
2023-01-11T04:41:36.303Z,-6.70
2023-01-11T04:44:40.375Z,-6.58
2023-01-11T04:47:44.821Z,-6.43
2023-01-11T04:50:50.189Z,-6.51
2023-01-11T04:53:54.764Z,-6.70
2023-01-11T04:56:59.638Z,-6.66
2023-01-11T05:00:14.184Z,-6.49
2023-01-11T05:03:18.590Z,-6.40
2023-01-11T05:06:26.645Z,-6.23
2023-01-11T05:09:30.877Z,-6.34
2023-01-11T05:12:35.772Z,-6.17
2023-01-11T05:15:39.717Z,-6.32
2023-01-11T05:18:49.114Z,-6.45
2023-01-11T05:21:53.612Z,-6.30
2023-01-11T05:24:57.693Z,-6.36
2023-01-11T05:28:01.755Z,-6.61
2023-01-11T05:31:06.825Z,-6.31
2023-01-11T05:34:13.891Z,-6.43
2023-01-11T05:37:17.874Z,-6.46
2023-01-11T05:40:22.535Z,-6.57
2023-01-11T05:43:28.003Z,-6.57
2023-01-11T05:46:33.433Z,-6.73
2023-01-11T05:49:37.606Z,-6.60
2023-01-11T05:52:42.117Z,-6.40
2023-01-11T05:55:54.583Z,-6.27
2023-01-11T05:58:59.369Z,-6.25
2023-01-11T06:02:03.277Z,-6.16
2023-01-11T06:05:08.531Z,-6.10
2023-01-11T06:08:13.850Z,-6.28
2023-01-11T06:11:18.557Z,-6.55
2023-01-11T06:14:22.592Z,-6.58
2023-01-11T06:17:26.833Z,-6.66
2023-01-11T06:20:31.220Z,-6.47
2023-01-11T06:23:38.307Z,-6.45
2023-01-11T06:26:42.355Z,-6.68
2023-01-11T06:29:46.626Z,-6.89
2023-01-11T06:32:52.275Z,-6.58
2023-01-11T06:35:57.244Z,-6.91
2023-01-11T06:39:01.652Z,-6.76
2023-01-11T06:42:06.137Z,-6.54
2023-01-11T06:45:10.777Z,-6.77
2023-01-11T06:48:15.535Z,-6.73
2023-01-11T06:51:19.905Z,-6.92
2023-01-11T06:54:26.371Z,-6.82
2023-01-11T06:57:30.945Z,-6.94
2023-01-11T07:00:35.533Z,-7.05
2023-01-11T07:03:41.003Z,-7.14
2023-01-11T07:06:45.707Z,-6.93
2023-01-11T07:09:50.060Z,-6.94
2023-01-11T07:12:54.565Z,-6.89
2023-01-11T07:15:59.240Z,-6.87
2023-01-11T07:19:03.964Z,-6.80
2023-01-11T07:22:08.548Z,-6.99
2023-01-11T07:25:13.000Z,-7.12
2023-01-11T07:28:17.285Z,-7.04
2023-01-11T07:31:22.036Z,-7.15
2023-01-11T07:34:26.956Z,-7.33
2023-01-11T07:37:33.403Z,-6.95
2023-01-11T07:40:38.373Z,-6.83
2023-01-11T07:43:43.360Z,-7.06
2023-01-11T07:46:47.688Z,-6.84
2023-01-11T07:49:52.118Z,-7.10
2023-01-11T07:52:56.200Z,-7.16
2023-01-11T07:56:00.359Z,-6.94
2023-01-11T07:59:04.686Z,-7.09
2023-01-11T08:02:11.628Z,-7.02
2023-01-11T08:05:15.892Z,-7.01
2023-01-11T08:08:20.413Z,-7.09
2023-01-11T08:11:42.967Z,-6.89
2023-01-11T08:14:47.426Z,-6.92
2023-01-11T08:17:52.079Z,-6.99
2023-01-11T08:20:56.479Z,-6.91
2023-01-11T08:24:01.369Z,-7.07
2023-01-11T08:27:07.099Z,-7.01
2023-01-11T08:30:14.741Z,-6.83
2023-01-11T08:33:19.781Z,-6.78
2023-01-11T08:36:25.328Z,-6.93
2023-01-11T08:39:32.990Z,-6.90
2023-01-11T08:42:37.519Z,-7.10
2023-01-11T08:45:41.598Z,-7.62
2023-01-11T08:48:49.711Z,-7.34
2023-01-11T08:51:54.445Z,-7.37
2023-01-11T08:54:59.244Z,-7.48
2023-01-11T08:58:03.583Z,-7.75
2023-01-11T09:01:10.504Z,-7.51
2023-01-11T09:04:24.319Z,-7.37
2023-01-11T09:07:30.274Z,-7.28
2023-01-11T09:10:34.995Z,-7.07
2023-01-11T09:13:39.477Z,-7.13
2023-01-11T09:16:43.572Z,-7.06
2023-01-11T09:19:47.621Z,-7.04
2023-01-11T09:22:54.271Z,-7.27
2023-01-11T09:25:58.645Z,-7.44
2023-01-11T09:29:04.539Z,-7.28
2023-01-11T09:32:08.409Z,-7.06
2023-01-11T09:35:13.046Z,-7.18
2023-01-11T09:38:17.223Z,-7.25
2023-01-11T09:42:01.093Z,-7.28
2023-01-11T09:45:21.395Z,-7.05
2023-01-11T09:48:45.970Z,-6.94
2023-01-11T09:51:53.594Z,-7.01
2023-01-11T09:55:00.076Z,-7.57
2023-01-11T09:58:13.515Z,-7.92
2023-01-11T10:01:35.884Z,-7.92
2023-01-11T10:05:10.375Z,-8.29
2023-01-11T10:18:43.473Z,-9.06
2023-01-11T10:20:04.212Z,-9.06
2023-01-11T10:23:33.015Z,-9.35
2023-01-11T10:26:43.246Z,-9.17
2023-01-11T10:29:54.145Z,-9.02
2023-01-11T10:33:41.063Z,-8.97
2023-01-11T10:37:19.747Z,-9.31
2023-01-11T10:40:31.931Z,-9.12
2023-01-11T10:43:45.309Z,-9.17
2023-01-11T10:46:55.290Z,-9.49
2023-01-11T10:50:16.491Z,-9.55
2023-01-11T10:53:30.826Z,-9.54
2023-01-11T10:57:03.278Z,-9.51
2023-01-11T11:00:19.121Z,-9.48
2023-01-11T11:03:49.731Z,-9.29
2023-01-11T11:07:08.611Z,-9.24
2023-01-11T11:10:20.099Z,-9.41
2023-01-11T11:13:36.452Z,-9.53
2023-01-11T11:16:46.793Z,-9.34
2023-01-11T11:19:51.395Z,-9.43
2023-01-11T11:22:59.577Z,-9.38
2023-01-11T11:26:08.038Z,-9.10
2023-01-11T11:29:20.546Z,-9.22
2023-01-11T11:32:31.157Z,-9.27
2023-01-11T11:35:35.917Z,-9.43
2023-01-11T11:38:43.372Z,-9.49
2023-01-11T11:41:54.135Z,-9.16
2023-01-11T11:45:12.124Z,-9.19
2023-01-11T11:48:21.101Z,-9.55
2023-01-11T11:51:27.701Z,-9.86
2023-01-11T11:54:36.884Z,-9.56
2023-01-11T11:57:43.434Z,-9.68
2023-01-11T12:00:56.728Z,-9.48
2023-01-11T12:04:26.895Z,-9.54
2023-01-11T12:11:47.819Z,-9.77
2023-01-11T12:15:19.428Z,-9.79
2023-01-11T12:18:27.182Z,-9.72
2023-01-11T12:25:44.171Z,-8.66
2023-01-11T12:29:52.087Z,-8.59
2023-01-11T12:33:03.057Z,-8.80
2023-01-11T12:36:13.900Z,-8.73
2023-01-11T12:39:46.970Z,-9.13
2023-01-11T12:43:26.737Z,-9.12
2023-01-11T12:47:09.261Z,-8.98
2023-01-11T12:50:55.614Z,-8.84
2023-01-11T12:54:29.087Z,-9.33
2023-01-11T12:58:01.513Z,-9.42
2023-01-11T13:01:39.896Z,-9.16
2023-01-11T13:05:20.213Z,-9.19
2023-01-11T13:08:27.215Z,-9.11
2023-01-11T13:11:54.714Z,-9.16
2023-01-11T13:15:17.632Z,-9.34
2023-01-11T13:18:31.204Z,-9.55
2023-01-11T13:21:45.131Z,-9.75
2023-01-11T13:24:51.930Z,-9.67
2023-01-11T13:27:59.524Z,-9.68
2023-01-11T13:31:06.614Z,-9.65
2023-01-11T13:34:21.608Z,-9.58
2023-01-11T13:37:33.714Z,-10.42
2023-01-11T13:40:43.676Z,-10.21
2023-01-11T13:44:06.138Z,-10.44
2023-01-11T13:47:36.325Z,-10.37
2023-01-11T13:51:05.332Z,-10.63
2023-01-11T13:54:26.680Z,-10.94
2023-01-11T13:58:08.621Z,-10.68
2023-01-11T14:01:17.408Z,-10.93
2023-01-11T14:04:34.367Z,-10.65
2023-01-11T14:07:52.567Z,-10.77
2023-01-11T14:11:06.539Z,-11.16
2023-01-11T14:14:27.528Z,-11.09
2023-01-11T14:18:10.286Z,-11.58
2023-01-11T14:21:34.063Z,-12.37
2023-01-11T14:24:43.100Z,-12.04
2023-01-11T14:28:07.103Z,-11.83
2023-01-11T14:31:53.010Z,-11.54
2023-01-11T14:35:35.379Z,-11.66
2023-01-11T14:39:06.933Z,-12.44
2023-01-11T14:42:35.339Z,-12.09
2023-01-11T14:45:54.636Z,-12.02
2023-01-11T14:49:10.755Z,-12.06
2023-01-11T14:52:38.259Z,-12.07
2023-01-11T14:55:49.921Z,-12.33
2023-01-11T14:59:23.391Z,-12.39
2023-01-11T15:02:30.537Z,-12.71
2023-01-11T15:05:40.259Z,-12.10
2023-01-11T15:08:47.173Z,-10.93
2023-01-11T15:11:58.252Z,-9.77
2023-01-11T15:15:22.711Z,-9.56
2023-01-11T15:18:28.414Z,-9.39
2023-01-11T15:21:38.903Z,-9.09
2023-01-11T15:24:58.525Z,-8.94
2023-01-11T15:28:25.911Z,-9.17
2023-01-11T15:31:49.080Z,-10.25
2023-01-11T15:34:54.093Z,-9.40
2023-01-11T15:38:25.055Z,-9.18
2023-01-11T15:42:07.742Z,-9.19
2023-01-11T15:45:29.697Z,-9.68
2023-01-11T15:48:54.343Z,-9.54
2023-01-11T15:52:14.682Z,-9.79
2023-01-11T15:55:49.619Z,-9.50
2023-01-11T15:59:28.952Z,-9.79
2023-01-11T16:03:03.289Z,-10.38
2023-01-11T16:06:37.396Z,-10.69
2023-01-11T16:09:51.337Z,-11.87
2023-01-11T16:13:10.328Z,-11.54
2023-01-11T16:16:20.077Z,-12.02
2023-01-11T16:19:29.932Z,-12.30
2023-01-11T16:22:35.948Z,-13.13
2023-01-11T16:25:44.125Z,-13.50
2023-01-11T16:28:53.707Z,-12.99
2023-01-11T16:31:59.893Z,-13.29
2023-01-11T16:35:17.771Z,-13.07
2023-01-11T16:38:23.684Z,-13.84
2023-01-11T16:41:34.181Z,-12.66
2023-01-11T16:44:42.505Z,-12.45
2023-01-11T16:48:03.782Z,-12.67
2023-01-11T16:51:20.295Z,-13.13
2023-01-11T16:54:29.058Z,-13.13
2023-01-11T16:57:40.292Z,-13.14
2023-01-11T17:00:53.058Z,-13.30
2023-01-11T17:03:57.506Z,-13.34
2023-01-11T17:07:15.608Z,-13.40
2023-01-11T17:10:24.776Z,-13.33
2023-01-11T17:13:53.866Z,-13.42
2023-01-11T17:17:14.681Z,-13.45
2023-01-11T17:20:30.776Z,-13.50
2023-01-11T17:23:35.044Z,-13.44
2023-01-11T17:26:46.725Z,-13.54
2023-01-11T17:29:55.397Z,-13.33
2023-01-11T17:33:00.636Z,-13.32
2023-01-11T17:36:05.539Z,-13.27
2023-01-11T17:39:17.541Z,-13.36
2023-01-11T17:42:40.671Z,-13.27
2023-01-11T17:45:52.598Z,-13.76
2023-01-11T17:48:59.443Z,-13.62
2023-01-11T17:52:22.259Z,-13.77
2023-01-11T17:55:28.194Z,-13.84
2023-01-11T17:58:34.634Z,-13.80
2023-01-11T18:01:39.710Z,-13.94
2023-01-11T18:04:44.367Z,-14.26
2023-01-11T18:07:56.360Z,-14.41
2023-01-11T18:11:01.044Z,-14.28
2023-01-11T18:14:08.534Z,-14.34
2023-01-11T18:17:34.093Z,-13.95
2023-01-11T18:20:41.034Z,-14.01
2023-01-11T18:23:45.640Z,-14.37
2023-01-11T18:26:51.032Z,-14.63
2023-01-11T18:29:58.788Z,-14.98
2023-01-11T18:33:05.336Z,-14.60
2023-01-11T18:36:24.507Z,-15.02
2023-01-11T18:39:28.906Z,-14.90
2023-01-11T18:42:33.355Z,-14.98
2023-01-11T18:45:38.696Z,-15.18
2023-01-11T18:48:46.979Z,-15.02
2023-01-11T18:51:51.283Z,-14.87
2023-01-11T18:54:57.543Z,-14.71
2023-01-11T18:58:02.103Z,-14.58
2023-01-11T19:01:09.345Z,-14.59
2023-01-11T19:04:13.864Z,-14.88
2023-01-11T19:07:19.031Z,-15.22
2023-01-11T19:10:25.313Z,-15.19
2023-01-11T19:13:29.783Z,-15.11
2023-01-11T19:16:33.991Z,-15.16
2023-01-11T19:19:38.648Z,-15.22
2023-01-11T19:22:45.341Z,-15.58
2023-01-11T19:25:58.923Z,-15.63
2023-01-11T19:29:03.283Z,-16.18
2023-01-11T19:32:12.122Z,-15.80
2023-01-11T19:35:16.388Z,-16.07
2023-01-11T19:38:21.456Z,-16.19
2023-01-11T19:41:25.989Z,-15.62
2023-01-11T19:44:35.953Z,-15.75
2023-01-11T19:47:40.894Z,-15.65
2023-01-11T19:50:45.154Z,-15.79
2023-01-11T19:53:49.878Z,-15.57
2023-01-11T19:56:58.998Z,-15.47
2023-01-11T20:00:04.940Z,-15.33
2023-01-11T20:03:15.709Z,-15.62
2023-01-11T20:06:20.272Z,-15.95
2023-01-11T20:09:25.445Z,-15.81
2023-01-11T20:12:29.888Z,-15.62
2023-01-11T20:15:34.291Z,-15.70
2023-01-11T20:18:38.843Z,-16.06
2023-01-11T20:21:43.290Z,-16.64
2023-01-11T20:24:48.473Z,-16.16
2023-01-11T20:27:53.006Z,-15.66
2023-01-11T20:31:02.326Z,-15.75
2023-01-11T20:34:11.730Z,-15.95
2023-01-11T20:37:16.439Z,-15.67
2023-01-11T20:40:21.920Z,-15.23
2023-01-11T20:43:26.006Z,-15.06
2023-01-11T20:46:33.385Z,-15.50
2023-01-11T20:49:37.968Z,-15.85
2023-01-11T20:52:46.428Z,-16.25
2023-01-11T20:55:51.932Z,-16.10
2023-01-11T20:58:55.814Z,-15.87
2023-01-11T21:02:00.384Z,-16.49
2023-01-11T21:05:08.108Z,-16.46
2023-01-11T21:08:12.790Z,-16.19
2023-01-11T21:11:17.477Z,-16.21
2023-01-11T21:14:23.282Z,-16.10
2023-01-11T21:17:28.064Z,-16.11
2023-01-11T21:20:32.601Z,-16.19
2023-01-11T21:23:37.053Z,-16.24
2023-01-11T21:26:43.070Z,-16.13
2023-01-11T21:29:48.379Z,-16.33
2023-01-11T21:32:52.577Z,-16.19
2023-01-11T21:35:58.357Z,-16.34
2023-01-11T21:39:04.173Z,-16.50
2023-01-11T21:42:08.848Z,-16.49
2023-01-11T21:45:13.491Z,-17.11
2023-01-11T21:48:18.239Z,-17.32
2023-01-11T21:51:22.681Z,-17.37
2023-01-11T21:54:27.256Z,-17.31
2023-01-11T21:57:31.810Z,-16.66
2023-01-11T22:00:36.637Z,-16.66
2023-01-11T22:03:44.669Z,-16.83
2023-01-11T22:06:55.267Z,-16.84
2023-01-11T22:10:04.818Z,-17.09
2023-01-11T22:13:13.759Z,-16.79
2023-01-11T22:16:20.165Z,-17.09
2023-01-11T22:19:28.189Z,-17.81
2023-01-11T22:22:32.611Z,-17.13
2023-01-11T22:25:37.441Z,-17.13
2023-01-11T22:29:00.779Z,-16.91
2023-01-11T22:32:05.678Z,-16.76
2023-01-11T22:35:12.594Z,-16.93
2023-01-11T22:38:17.591Z,-16.86
2023-01-11T22:41:24.093Z,-16.78
2023-01-11T22:44:28.535Z,-17.14
2023-01-11T22:47:35.311Z,-17.15
2023-01-11T22:50:41.680Z,-17.20
2023-01-11T22:53:48.797Z,-17.37
2023-01-11T22:56:53.739Z,-16.96
2023-01-11T22:59:59.237Z,-16.83
2023-01-11T23:03:05.080Z,-17.03
2023-01-11T23:06:11.491Z,-16.70
2023-01-11T23:09:17.214Z,-16.69
2023-01-11T23:12:43.505Z,-16.78
2023-01-11T23:15:53.758Z,-17.51
2023-01-11T23:18:58.587Z,-16.85
2023-01-11T23:22:03.635Z,-16.67
2023-01-11T23:25:08.745Z,-16.33
2023-01-11T23:28:13.431Z,-16.14
2023-01-11T23:31:21.066Z,-16.47
2023-01-11T23:34:25.634Z,-16.54
2023-01-11T23:37:30.081Z,-16.29
2023-01-11T23:40:56.969Z,-16.11
2023-01-11T23:44:02.053Z,-15.34
2023-01-11T23:47:22.085Z,-15.11
2023-01-11T23:50:29.869Z,-15.46
2023-01-11T23:53:33.954Z,-14.96
2023-01-11T23:56:38.662Z,-14.68
2023-01-11T23:59:43.840Z,-14.41
